createdAt,value
2022-11-16T00:01:18.482Z,49.20
2022-11-16T00:03:46.921Z,51.23
2022-11-16T00:06:16.533Z,50.83
2022-11-16T00:09:06.862Z,45.43
2022-11-16T00:11:37.482Z,48.97
2022-11-16T00:14:06.377Z,49.10
2022-11-16T00:16:34.883Z,49.43
2022-11-16T00:19:04.689Z,53.27
2022-11-16T00:21:33.323Z,53.43
2022-11-16T00:24:01.675Z,45.83
2022-11-16T00:26:30.096Z,45.07
2022-11-16T00:28:59.848Z,41.50
2022-11-16T00:31:27.910Z,42.47
2022-11-16T00:33:56.086Z,45.70
2022-11-16T00:36:24.159Z,46.10
2022-11-16T00:38:53.873Z,42.87
2022-11-16T00:41:22.068Z,46.90
2022-11-16T00:43:50.140Z,38.23
2022-11-16T00:46:19.776Z,42.03
2022-11-16T00:48:48.086Z,38.30
2022-11-16T00:51:16.143Z,41.37
2022-11-16T00:53:44.116Z,47.40
2022-11-16T00:56:12.100Z,40.70
2022-11-16T00:58:40.059Z,42.37
2022-11-16T01:01:10.367Z,39.17
2022-11-16T01:03:40.481Z,43.53
2022-11-16T01:06:11.169Z,41.33
2022-11-16T01:08:41.334Z,46.03
2022-11-16T01:11:27.953Z,40.80
2022-11-16T01:13:56.960Z,37.93
2022-11-16T01:16:25.317Z,50.33
2022-11-16T01:18:56.165Z,43.27
2022-11-16T01:21:24.864Z,40.30
2022-11-16T01:23:55.887Z,36.23
2022-11-16T01:26:24.062Z,43.70
2022-11-16T01:28:52.144Z,41.40
2022-11-16T01:31:20.373Z,40.77
2022-11-16T01:33:48.499Z,42.00
2022-11-16T01:36:18.305Z,38.70
2022-11-16T01:38:48.303Z,42.60
2022-11-16T01:41:19.426Z,47.00
2022-11-16T01:43:57.192Z,43.40
2022-11-16T01:46:26.670Z,36.20
2022-11-16T01:48:59.638Z,46.73
2022-11-16T01:51:29.476Z,46.43
2022-11-16T01:53:57.906Z,43.07
2022-11-16T01:56:26.815Z,40.07
2022-11-16T01:58:55.254Z,42.87
2022-11-16T02:01:24.249Z,44.90
2022-11-16T02:03:52.369Z,45.87
2022-11-16T02:06:50.121Z,43.00
2022-11-16T02:09:53.862Z,41.23
2022-11-16T02:12:38.718Z,45.37
2022-11-16T02:15:16.123Z,45.37
2022-11-16T02:17:53.165Z,46.70
2022-11-16T02:20:49.272Z,42.93
2022-11-16T02:23:52.922Z,46.03
2022-11-16T02:26:40.633Z,46.60
2022-11-16T02:29:24.223Z,46.20
2022-11-16T02:32:00.099Z,42.90
2022-11-16T02:34:33.089Z,46.27
2022-11-16T02:37:04.186Z,45.57
2022-11-16T02:39:33.825Z,42.83
2022-11-16T02:42:06.143Z,48.57
2022-11-16T02:44:37.356Z,45.80
2022-11-16T02:47:08.638Z,42.00
2022-11-16T02:49:40.221Z,37.97
2022-11-16T02:52:09.190Z,45.07
2022-11-16T02:54:37.172Z,42.40
2022-11-16T02:57:29.714Z,35.13
2022-11-16T03:00:01.698Z,46.80
2022-11-16T03:02:35.017Z,40.60
2022-11-16T03:05:06.923Z,43.10
2022-11-16T03:07:45.722Z,40.63
2022-11-16T03:10:34.850Z,43.30
2022-11-16T03:13:03.805Z,39.73
2022-11-16T03:15:35.314Z,46.03
2022-11-16T03:18:04.453Z,40.13
2022-11-16T03:20:35.164Z,40.13
2022-11-16T03:23:06.905Z,46.63
2022-11-16T03:25:41.097Z,50.30
2022-11-16T03:28:14.383Z,45.67
2022-11-16T03:30:50.541Z,43.03
2022-11-16T03:33:23.415Z,47.40
2022-11-16T03:35:57.419Z,43.13
2022-11-16T03:38:28.526Z,42.30
2022-11-16T03:41:00.322Z,52.53
2022-11-16T03:43:29.260Z,44.00
2022-11-16T03:46:00.240Z,42.30
2022-11-16T03:48:35.601Z,41.03
2022-11-16T03:51:04.496Z,45.90
2022-11-16T03:53:32.746Z,45.27
2022-11-16T03:56:00.943Z,43.70
2022-11-16T03:58:28.981Z,47.37
2022-11-16T04:00:58.343Z,44.80
2022-11-16T04:03:26.446Z,45.57
2022-11-16T04:06:12.031Z,45.13
2022-11-16T04:08:57.547Z,41.90
2022-11-16T04:11:43.120Z,46.27
2022-11-16T04:14:32.633Z,39.90
2022-11-16T04:17:19.384Z,46.07
2022-11-16T04:20:04.818Z,44.67
2022-11-16T04:22:52.853Z,44.17
2022-11-16T04:25:24.698Z,47.83
2022-11-16T04:28:11.004Z,46.40
2022-11-16T04:30:53.256Z,48.33
2022-11-16T04:33:40.404Z,46.57
2022-11-16T04:36:26.752Z,46.60
2022-11-16T04:38:54.746Z,47.40
2022-11-16T04:41:40.400Z,55.93
2022-11-16T04:44:08.406Z,58.60
2022-11-16T04:46:54.017Z,55.47
2022-11-16T04:49:23.368Z,56.27
2022-11-16T04:51:51.399Z,55.53
2022-11-16T04:54:19.858Z,56.17
2022-11-16T04:56:47.971Z,53.90
2022-11-16T04:59:16.900Z,62.93
2022-11-16T05:02:02.241Z,57.77
2022-11-16T05:04:31.633Z,62.00
2022-11-16T05:06:59.740Z,49.43
2022-11-16T05:09:27.825Z,57.37
2022-11-16T05:11:55.795Z,64.70
2022-11-16T05:14:23.780Z,56.37
2022-11-16T05:16:51.721Z,63.80
2022-11-16T05:19:37.408Z,61.03
2022-11-16T05:22:06.791Z,55.63
2022-11-16T05:24:34.790Z,59.23
2022-11-16T05:27:03.540Z,62.23
2022-11-16T05:29:32.149Z,62.60
2022-11-16T05:32:00.776Z,70.00
2022-11-16T05:34:29.212Z,70.63
2022-11-16T05:36:58.073Z,60.50
2022-11-16T05:39:27.784Z,57.03
2022-11-16T05:41:56.690Z,68.80
2022-11-16T05:44:24.945Z,53.57
2022-11-16T05:46:53.392Z,53.63
2022-11-16T05:49:21.480Z,58.50
2022-11-16T05:51:50.412Z,56.13
2022-11-16T05:54:20.165Z,57.67
2022-11-16T05:56:55.894Z,48.80
2022-11-16T05:59:24.827Z,55.83
2022-11-16T06:01:53.159Z,49.37
2022-11-16T06:04:24.758Z,54.47
2022-11-16T06:06:55.949Z,51.87
2022-11-16T06:09:24.116Z,46.87
2022-11-16T06:11:53.505Z,43.20
2022-11-16T06:14:21.538Z,46.80
2022-11-16T06:16:49.572Z,53.10
2022-11-16T06:19:17.612Z,40.73
2022-11-16T06:21:45.584Z,44.30
2022-11-16T06:24:13.617Z,38.93
2022-11-16T06:26:41.585Z,41.77
2022-11-16T06:29:10.883Z,47.00
2022-11-16T06:31:38.807Z,39.67
2022-11-16T06:34:06.770Z,43.67
2022-11-16T06:36:39.065Z,41.87
2022-11-16T06:39:07.100Z,40.90
2022-11-16T06:41:40.152Z,40.73
2022-11-16T06:44:10.661Z,37.50
2022-11-16T06:46:38.639Z,36.23
2022-11-16T06:49:06.652Z,38.53
2022-11-16T06:51:34.583Z,34.43
2022-11-16T06:54:02.509Z,34.37
2022-11-16T06:56:30.551Z,34.20
2022-11-16T06:58:58.585Z,36.23
2022-11-16T07:01:28.181Z,34.63
2022-11-16T07:03:57.752Z,35.77
2022-11-16T07:06:25.771Z,34.43
2022-11-16T07:08:53.766Z,32.70
2022-11-16T07:11:21.714Z,37.90
2022-11-16T07:13:49.970Z,34.87
2022-11-16T07:16:17.920Z,35.10
2022-11-16T07:18:47.204Z,32.67
2022-11-16T07:21:17.340Z,34.43
2022-11-16T07:23:45.670Z,33.27
2022-11-16T07:26:13.685Z,33.03
2022-11-16T07:28:47.711Z,34.43
2022-11-16T07:31:16.654Z,38.07
2022-11-16T07:33:44.644Z,33.37
2022-11-16T07:36:15.817Z,30.13
2022-11-16T07:38:43.996Z,37.67
2022-11-16T07:41:17.292Z,27.00
2022-11-16T07:43:51.498Z,23.57
2022-11-16T07:46:47.424Z,21.57
2022-11-16T07:49:14.576Z,18.07
2022-11-16T07:51:44.263Z,15.73
2022-11-16T07:54:13.502Z,18.30
2022-11-16T07:56:41.544Z,16.37
2022-11-16T07:59:09.777Z,15.20
2022-11-16T08:01:37.921Z,12.23
2022-11-16T08:04:05.927Z,14.70
2022-11-16T08:06:33.936Z,10.57
2022-11-16T08:09:04.126Z,13.33
2022-11-16T08:11:32.077Z,12.87
2022-11-16T08:14:00.185Z,12.93
2022-11-16T08:16:28.155Z,12.93
2022-11-16T08:18:56.105Z,17.07
2022-11-16T08:21:24.077Z,12.60
2022-11-16T08:23:57.847Z,11.87
2022-11-16T08:26:28.237Z,11.80
2022-11-16T08:28:57.262Z,8.00
2022-11-16T08:31:26.859Z,8.27
2022-11-16T08:33:55.802Z,9.50
2022-11-16T08:36:24.090Z,9.10
2022-11-16T08:38:53.432Z,9.40
2022-11-16T08:41:21.954Z,12.03
2022-11-16T08:43:53.448Z,10.23
2022-11-16T08:46:21.908Z,11.27
2022-11-16T08:48:50.060Z,9.33
2022-11-16T08:51:20.132Z,9.20
2022-11-16T08:53:49.536Z,9.13
2022-11-16T08:56:19.029Z,10.53
2022-11-16T08:58:47.941Z,11.60
2022-11-16T09:01:20.329Z,9.40
2022-11-16T09:03:48.766Z,10.60
2022-11-16T09:06:17.175Z,10.43
2022-11-16T09:08:47.417Z,8.87
2022-11-16T09:11:17.925Z,11.93
2022-11-16T09:13:47.508Z,9.15
2022-11-16T09:16:16.853Z,8.43
2022-11-16T09:18:47.209Z,7.90
2022-11-16T09:21:19.072Z,9.63
2022-11-16T09:23:47.696Z,8.77
2022-11-16T09:26:16.562Z,10.43
2022-11-16T09:28:44.586Z,10.67
2022-11-16T09:31:12.536Z,9.43
2022-11-16T09:33:40.831Z,7.67
2022-11-16T09:36:11.034Z,7.33
2022-11-16T09:39:13.889Z,7.90
2022-11-16T09:41:56.887Z,8.37
2022-11-16T09:44:42.234Z,6.47
2022-11-16T09:47:16.060Z,7.30
2022-11-16T09:49:48.595Z,7.80
2022-11-16T09:52:26.323Z,8.63
2022-11-16T09:54:55.929Z,8.40
2022-11-16T09:57:29.438Z,5.57
2022-11-16T10:00:03.479Z,9.77
2022-11-16T10:02:37.180Z,5.83
2022-11-16T10:05:14.857Z,7.53
2022-11-16T10:07:48.395Z,7.77
2022-11-16T10:10:19.094Z,8.17
2022-11-16T10:12:53.021Z,6.93
2022-11-16T10:15:41.751Z,5.07
2022-11-16T10:18:27.957Z,5.67
2022-11-16T10:21:08.770Z,7.60
2022-11-16T10:23:49.861Z,8.07
2022-11-16T10:26:27.383Z,7.77
2022-11-16T10:29:10.277Z,6.97
2022-11-16T10:31:58.215Z,7.13
2022-11-16T10:34:29.622Z,5.53
2022-11-16T10:37:04.469Z,6.10
2022-11-16T10:39:36.664Z,6.53
2022-11-16T10:42:07.840Z,6.83
2022-11-16T10:44:39.869Z,8.00
2022-11-16T10:47:16.010Z,8.90
2022-11-16T10:49:51.551Z,4.93
2022-11-16T10:52:19.912Z,6.53
2022-11-16T10:54:49.262Z,5.17
2022-11-16T10:57:17.886Z,6.13
2022-11-16T10:59:47.712Z,6.03
2022-11-16T11:02:32.169Z,7.43
2022-11-16T11:05:16.701Z,7.10
2022-11-16T11:07:52.111Z,7.13
2022-11-16T11:10:29.645Z,5.40
2022-11-16T11:13:08.184Z,4.23
2022-11-16T11:15:36.309Z,5.13
2022-11-16T11:18:19.368Z,5.70
2022-11-16T11:20:49.500Z,5.60
2022-11-16T11:23:19.792Z,5.33
2022-11-16T11:25:54.438Z,4.57
2022-11-16T11:28:26.596Z,4.57
2022-11-16T11:31:03.704Z,5.10
2022-11-16T11:33:35.361Z,4.77
2022-11-16T11:36:07.064Z,2.87
2022-11-16T11:38:36.733Z,3.23
2022-11-16T11:41:06.173Z,2.40
2022-11-16T11:43:35.240Z,3.67
2022-11-16T11:46:13.971Z,2.30
2022-11-16T11:48:48.965Z,3.00
2022-11-16T11:51:22.263Z,3.97
2022-11-16T11:53:56.477Z,3.20
2022-11-16T11:56:27.280Z,2.27
2022-11-16T11:58:56.031Z,4.60
2022-11-16T12:01:46.987Z,2.90
2022-11-16T12:05:00.270Z,2.40
2022-11-16T12:07:48.421Z,2.40
2022-11-16T12:10:26.918Z,2.80
2022-11-16T12:13:14.185Z,2.40
2022-11-16T12:15:58.144Z,2.43
2022-11-16T12:18:40.794Z,2.73
2022-11-16T12:21:14.265Z,2.37
2022-11-16T12:24:00.460Z,2.20
2022-11-16T12:26:37.443Z,3.93
2022-11-16T12:29:23.120Z,4.67
2022-11-16T12:32:10.045Z,6.27
2022-11-16T12:34:53.784Z,3.83
2022-11-16T12:37:30.739Z,3.53
2022-11-16T12:40:18.853Z,3.07
2022-11-16T12:42:56.385Z,3.50
2022-11-16T12:45:43.466Z,4.53
2022-11-16T12:48:41.899Z,3.23
2022-11-16T12:51:18.426Z,3.93
2022-11-16T12:54:04.792Z,3.77
2022-11-16T12:56:48.664Z,2.57
2022-11-16T12:59:39.925Z,3.80
2022-11-16T13:02:18.984Z,3.87
2022-11-16T13:04:51.390Z,4.37
2022-11-16T13:07:26.218Z,5.77
2022-11-16T13:10:01.785Z,6.33
2022-11-16T13:12:31.886Z,5.33
2022-11-16T13:15:03.338Z,5.30
2022-11-16T13:17:36.351Z,5.57
2022-11-16T13:20:22.963Z,4.10
2022-11-16T13:22:56.801Z,5.63
2022-11-16T13:25:31.519Z,6.60
2022-11-16T13:28:05.601Z,4.53
2022-11-16T13:30:42.552Z,6.50
2022-11-16T13:33:31.248Z,5.10
2022-11-16T13:35:59.291Z,7.40
2022-11-16T13:38:53.230Z,9.00
2022-11-16T13:41:29.409Z,6.47
2022-11-16T13:43:57.649Z,8.30
2022-11-16T13:47:01.556Z,7.97
2022-11-16T13:49:34.253Z,6.30
2022-11-16T13:52:22.123Z,7.27
2022-11-16T13:54:54.985Z,7.47
2022-11-16T13:57:26.276Z,4.90
2022-11-16T14:00:09.244Z,5.83
2022-11-16T14:02:38.958Z,5.60
2022-11-16T14:05:16.147Z,6.88
2022-11-16T14:07:47.376Z,7.17
2022-11-16T14:11:02.108Z,5.57
2022-11-16T14:13:40.613Z,4.27
2022-11-16T14:16:54.594Z,4.13
2022-11-16T14:19:52.876Z,4.57
2022-11-16T14:22:38.931Z,5.23
2022-11-16T14:25:15.253Z,4.40
2022-11-16T14:27:49.956Z,5.43
2022-11-16T14:30:22.300Z,6.97
2022-11-16T14:32:52.924Z,6.10
2022-11-16T14:35:29.992Z,6.07
2022-11-16T14:38:02.590Z,6.33
2022-11-16T14:40:31.824Z,6.40
2022-11-16T14:43:21.520Z,9.40
2022-11-16T14:45:54.282Z,5.77
2022-11-16T14:48:25.961Z,5.77
2022-11-16T14:51:07.671Z,8.47
2022-11-16T14:53:41.652Z,6.43
2022-11-16T14:56:11.753Z,5.87
2022-11-16T14:58:40.672Z,6.37
2022-11-16T15:01:14.706Z,7.07
2022-11-16T15:03:53.273Z,11.23
2022-11-16T15:06:22.074Z,7.10
2022-11-16T15:08:55.128Z,4.57
2022-11-16T15:11:47.256Z,8.10
2022-11-16T15:14:21.011Z,7.10
2022-11-16T15:16:53.043Z,5.90
2022-11-16T15:19:21.682Z,7.93
2022-11-16T15:21:54.723Z,7.53
2022-11-16T15:24:31.306Z,4.23
2022-11-16T15:27:19.968Z,4.93
2022-11-16T15:29:49.017Z,6.97
2022-11-16T15:32:18.614Z,6.07
2022-11-16T15:34:52.066Z,10.25
2022-11-16T15:37:28.265Z,6.73
2022-11-16T15:39:58.561Z,5.37
2022-11-16T15:42:29.348Z,5.50
2022-11-16T15:44:59.932Z,5.90
2022-11-16T15:47:29.253Z,6.43
2022-11-16T15:49:57.416Z,5.97
2022-11-16T15:52:47.268Z,7.77
2022-11-16T15:55:32.736Z,6.57
2022-11-16T15:58:08.070Z,6.77
2022-11-16T16:00:41.429Z,7.53
2022-11-16T16:03:20.049Z,10.70
2022-11-16T16:05:48.905Z,8.50
2022-11-16T16:08:34.658Z,7.83
2022-11-16T16:11:12.187Z,10.37
2022-11-16T16:13:41.875Z,8.00
2022-11-16T16:16:21.256Z,9.83
2022-11-16T16:18:50.016Z,7.50
2022-11-16T16:21:19.110Z,9.40
2022-11-16T16:23:48.851Z,13.57
2022-11-16T16:26:18.991Z,11.77
2022-11-16T16:28:47.965Z,11.53
2022-11-16T16:31:17.794Z,10.20
2022-11-16T16:33:49.866Z,9.10
2022-11-16T16:36:17.943Z,11.53
2022-11-16T16:38:46.270Z,12.90
2022-11-16T16:41:24.072Z,11.00
2022-11-16T16:43:52.813Z,14.23
2022-11-16T16:46:21.744Z,13.47
2022-11-16T16:48:50.212Z,12.07
2022-11-16T16:51:18.770Z,11.80
2022-11-16T16:53:47.011Z,10.83
2022-11-16T16:56:19.359Z,9.73
2022-11-16T16:58:47.841Z,12.10
2022-11-16T17:01:16.048Z,15.43
2022-11-16T17:03:44.201Z,12.90
2022-11-16T17:06:12.279Z,13.93
2022-11-16T17:08:40.286Z,14.77
2022-11-16T17:11:09.122Z,15.83
2022-11-16T17:13:38.558Z,13.60
2022-11-16T17:16:07.818Z,12.73
2022-11-16T17:18:35.806Z,10.70
2022-11-16T17:21:07.670Z,14.03
2022-11-16T17:23:36.452Z,13.57
2022-11-16T17:26:06.384Z,14.40
2022-11-16T17:28:34.974Z,15.60
2022-11-16T17:31:05.315Z,11.87
2022-11-16T17:33:35.765Z,12.47
2022-11-16T17:36:04.595Z,10.30
2022-11-16T17:38:33.229Z,14.03
2022-11-16T17:41:06.051Z,10.67
2022-11-16T17:43:34.814Z,13.33
2022-11-16T17:46:06.250Z,14.47
2022-11-16T17:48:34.635Z,12.57
2022-11-16T17:51:03.064Z,14.50
2022-11-16T17:53:32.917Z,13.77
2022-11-16T17:56:01.188Z,13.50
2022-11-16T17:58:30.139Z,17.17
2022-11-16T18:00:58.886Z,17.83
2022-11-16T18:03:28.510Z,16.80
2022-11-16T18:06:03.638Z,16.33
2022-11-16T18:08:32.544Z,14.07
2022-11-16T18:11:05.373Z,15.70
2022-11-16T18:13:34.144Z,13.50
2022-11-16T18:16:06.852Z,13.03
2022-11-16T18:18:36.793Z,11.60
2022-11-16T18:21:05.389Z,11.17
2022-11-16T18:23:34.590Z,11.80
2022-11-16T18:26:03.605Z,11.37
2022-11-16T18:28:31.652Z,12.87
2022-11-16T18:31:04.373Z,15.90
2022-11-16T18:33:32.755Z,15.83
2022-11-16T18:36:03.370Z,11.67
2022-11-16T18:38:31.579Z,12.33
2022-11-16T18:41:07.415Z,9.90
2022-11-16T18:43:36.194Z,11.67
2022-11-16T18:46:05.134Z,11.87
2022-11-16T18:48:33.205Z,13.27
2022-11-16T18:51:03.914Z,11.37
2022-11-16T18:53:33.373Z,12.27
2022-11-16T18:56:02.112Z,10.03
2022-11-16T19:01:20.277Z,10.07
2022-11-16T19:03:48.778Z,9.57
2022-11-16T19:06:18.502Z,12.47
2022-11-16T19:08:54.994Z,10.57
2022-11-16T19:11:24.714Z,9.00
2022-11-16T19:13:54.800Z,12.67
2022-11-16T19:16:23.607Z,11.87
2022-11-16T19:18:53.057Z,12.80
2022-11-16T19:21:23.040Z,13.07
2022-11-16T19:23:52.688Z,14.60
2022-11-16T19:26:22.197Z,9.10
2022-11-16T19:28:51.457Z,9.73
2022-11-16T19:31:22.898Z,13.40
2022-11-16T19:33:55.053Z,10.80
2022-11-16T19:36:25.754Z,11.87
2022-11-16T19:38:54.494Z,13.13
2022-11-16T19:41:23.185Z,17.37
2022-11-16T19:43:52.765Z,12.97
2022-11-16T19:46:21.638Z,12.03
2022-11-16T19:48:50.403Z,13.33
2022-11-16T19:51:20.226Z,14.23
2022-11-16T19:53:50.110Z,13.53
2022-11-16T19:56:19.676Z,13.37
2022-11-16T19:58:48.158Z,14.00
2022-11-16T20:01:18.092Z,13.70
2022-11-16T20:03:47.233Z,13.37
2022-11-16T20:06:17.657Z,12.33
2022-11-16T20:08:50.614Z,13.50
2022-11-16T20:11:20.818Z,14.80
2022-11-16T20:13:49.687Z,12.30
2022-11-16T20:16:19.733Z,12.67
2022-11-16T20:18:48.145Z,15.43
2022-11-16T20:21:20.694Z,17.50
2022-11-16T20:23:50.632Z,18.67
2022-11-16T20:26:20.101Z,17.43
2022-11-16T20:28:51.056Z,15.53
2022-11-16T20:31:20.824Z,17.10
2022-11-16T20:33:51.952Z,15.33
2022-11-16T20:36:20.406Z,15.53
2022-11-16T20:38:48.607Z,16.83
2022-11-16T20:41:20.516Z,14.67
2022-11-16T20:43:51.150Z,15.20
2022-11-16T20:46:21.022Z,15.27
2022-11-16T20:48:49.568Z,16.13
2022-11-16T20:51:19.134Z,17.47
2022-11-16T20:53:53.122Z,13.90
2022-11-16T20:56:23.488Z,13.13
2022-11-16T20:58:52.091Z,15.43
2022-11-16T21:01:28.322Z,14.97
2022-11-16T21:03:58.813Z,15.43
2022-11-16T21:06:27.450Z,17.80
2022-11-16T21:08:56.705Z,15.07
2022-11-16T21:11:29.073Z,23.93
2022-11-16T21:14:15.241Z,14.47
2022-11-16T21:16:43.634Z,16.83
2022-11-16T21:19:12.762Z,14.07
2022-11-16T21:21:41.588Z,13.90
2022-11-16T21:24:11.612Z,16.07
2022-11-16T21:26:41.325Z,14.37
2022-11-16T21:29:09.537Z,14.63
2022-11-16T21:31:38.405Z,13.43
2022-11-16T21:34:08.959Z,13.60
2022-11-16T21:36:40.135Z,16.37
2022-11-16T21:39:08.890Z,14.07
2022-11-16T21:41:37.350Z,16.93
2022-11-16T21:44:07.350Z,13.40
2022-11-16T21:46:35.395Z,14.40
2022-11-16T21:49:03.498Z,14.77
2022-11-16T21:51:31.901Z,14.07
2022-11-16T21:53:59.930Z,13.57
2022-11-16T21:56:28.090Z,12.93
2022-11-16T21:58:56.129Z,14.70
2022-11-16T22:01:25.579Z,15.23
2022-11-16T22:04:07.548Z,18.43
2022-11-16T22:06:53.273Z,16.47
2022-11-16T22:09:21.436Z,15.60
2022-11-16T22:11:49.587Z,15.97
2022-11-16T22:14:17.673Z,14.40
2022-11-16T22:16:47.234Z,17.40
2022-11-16T22:19:15.453Z,14.27
2022-11-16T22:21:43.601Z,12.77
2022-11-16T22:24:11.703Z,13.03
2022-11-16T22:26:41.170Z,13.87
2022-11-16T22:29:09.296Z,12.40
2022-11-16T22:31:37.413Z,13.90
2022-11-16T22:34:06.990Z,15.40
2022-11-16T22:36:35.122Z,15.43
2022-11-16T22:39:03.357Z,14.43
2022-11-16T22:41:31.621Z,16.33
2022-11-16T22:43:59.726Z,13.10
2022-11-16T22:46:27.875Z,12.10
2022-11-16T22:48:56.033Z,12.73
2022-11-16T22:51:27.203Z,10.77
2022-11-16T22:53:56.174Z,12.87
2022-11-16T22:56:25.184Z,13.07
2022-11-16T22:58:53.341Z,12.67
2022-11-16T23:01:21.875Z,11.70
2022-11-16T23:03:50.644Z,13.60
2022-11-16T23:06:19.134Z,12.60
2022-11-16T23:08:48.909Z,14.97
2022-11-16T23:11:36.276Z,13.73
2022-11-16T23:14:31.926Z,14.07
2022-11-16T23:17:00.338Z,12.70
2022-11-16T23:19:46.357Z,13.60
2022-11-16T23:22:33.358Z,11.57
2022-11-16T23:25:21.320Z,14.83
2022-11-16T23:27:56.247Z,11.90
2022-11-16T23:30:24.913Z,11.70
2022-11-16T23:32:53.356Z,12.07
2022-11-16T23:35:21.539Z,11.60
2022-11-16T23:37:54.730Z,12.00
2022-11-16T23:40:26.201Z,12.73
2022-11-16T23:43:12.615Z,12.50
2022-11-16T23:45:41.440Z,12.93
2022-11-16T23:48:11.108Z,11.13
2022-11-16T23:50:40.773Z,12.07
2022-11-16T23:53:10.242Z,12.97
2022-11-16T23:55:40.651Z,12.10
2022-11-16T23:58:13.094Z,10.73
